createdAt,value
2019-04-04T00:02:28.564Z,14.50
2019-04-04T00:05:03.278Z,14.43
2019-04-04T00:07:38.077Z,14.42
2019-04-04T00:10:12.939Z,14.41
2019-04-04T00:12:46.069Z,14.41
2019-04-04T00:16:33.647Z,14.48
2019-04-04T00:19:08.279Z,14.44
2019-04-04T00:21:42.946Z,14.39
2019-04-04T00:24:16.049Z,14.41
2019-04-04T00:26:50.286Z,14.41
2019-04-04T00:29:25.769Z,14.43
2019-04-04T00:31:58.866Z,14.40
2019-04-04T00:34:33.281Z,14.41
2019-04-04T00:37:07.947Z,14.40
2019-04-04T00:39:42.279Z,14.37
2019-04-04T00:42:17.483Z,14.33
2019-04-04T00:44:51.946Z,14.32
2019-04-04T00:47:26.338Z,14.32
2019-04-04T00:50:00.787Z,14.32
2019-04-04T00:52:35.288Z,14.32
2019-04-04T00:55:10.276Z,14.26
2019-04-04T00:57:44.696Z,14.24
2019-04-04T01:00:19.130Z,14.22
2019-04-04T01:02:53.675Z,14.13
2019-04-04T01:05:26.702Z,14.13
2019-04-04T01:08:01.295Z,14.14
2019-04-04T01:10:35.876Z,14.12
2019-04-04T01:13:10.276Z,14.03
2019-04-04T01:15:44.869Z,14.05
2019-04-04T01:18:19.343Z,14.13
2019-04-04T01:20:53.956Z,14.05
2019-04-04T01:23:28.128Z,13.96
2019-04-04T01:26:03.415Z,14.01
2019-04-04T01:28:39.096Z,13.90
2019-04-04T01:31:14.990Z,13.90
2019-04-04T01:33:51.622Z,13.89
2019-04-04T01:36:26.028Z,13.80
2019-04-04T01:39:00.823Z,13.73
2019-04-04T01:41:37.070Z,13.73
2019-04-04T01:44:11.832Z,13.72
2019-04-04T01:46:45.979Z,13.72
2019-04-04T01:49:21.241Z,13.74
2019-04-04T01:51:57.661Z,13.67
2019-04-04T01:54:32.800Z,13.61
2019-04-04T01:57:08.035Z,13.58
2019-04-04T01:59:43.834Z,13.54
2019-04-04T02:02:33.674Z,13.59
2019-04-04T02:05:08.296Z,13.31
2019-04-04T02:07:42.883Z,13.11
2019-04-04T02:10:17.293Z,13.15
2019-04-04T02:12:51.725Z,12.91
2019-04-04T02:15:25.954Z,12.91
2019-04-04T02:18:00.338Z,12.59
2019-04-04T02:20:35.277Z,12.59
2019-04-04T02:23:09.718Z,12.46
2019-04-04T02:25:44.078Z,12.35
2019-04-04T02:28:18.329Z,12.22
2019-04-04T02:30:53.281Z,12.22
2019-04-04T02:33:32.196Z,12.19
2019-04-04T02:36:03.923Z,12.11
2019-04-04T02:38:38.086Z,12.03
2019-04-04T02:41:15.013Z,11.94
2019-04-04T02:43:48.302Z,11.92
2019-04-04T02:46:22.905Z,11.92
2019-04-04T02:48:56.257Z,11.87
2019-04-04T02:51:31.287Z,11.81
2019-04-04T02:54:05.715Z,11.85
2019-04-04T02:56:38.686Z,11.87
2019-04-04T02:59:12.942Z,11.80
2019-04-04T03:01:47.286Z,11.70
2019-04-04T03:04:21.683Z,11.67
2019-04-04T03:06:58.485Z,11.69
2019-04-04T03:09:32.277Z,11.72
2019-04-04T03:12:06.655Z,11.64
2019-04-04T03:14:40.955Z,11.50
2019-04-04T03:17:14.021Z,11.24
2019-04-04T03:19:46.864Z,10.59
2019-04-04T03:22:21.117Z,10.40
2019-04-04T03:24:55.620Z,10.56
2019-04-04T03:27:29.958Z,10.56
2019-04-04T03:30:04.290Z,10.70
2019-04-04T03:32:38.765Z,10.06
2019-04-04T03:35:13.029Z,10.06
2019-04-04T03:37:47.349Z,9.88
2019-04-04T03:40:24.748Z,9.88
2019-04-04T03:42:57.895Z,9.89
2019-04-04T03:45:30.841Z,9.70
2019-04-04T03:48:04.958Z,9.79
2019-04-04T03:50:39.300Z,9.74
2019-04-04T03:53:16.332Z,9.70
2019-04-04T03:55:49.944Z,9.88
2019-04-04T03:58:27.069Z,10.05
2019-04-04T04:00:58.643Z,10.15
2019-04-04T04:03:32.918Z,10.01
2019-04-04T04:06:09.113Z,9.73
2019-04-04T04:08:43.287Z,9.76
2019-04-04T04:11:17.681Z,9.96
2019-04-04T04:13:52.253Z,10.12
2019-04-04T04:16:26.706Z,10.24
2019-04-04T04:19:00.993Z,10.40
2019-04-04T04:21:35.291Z,10.43
2019-04-04T04:24:09.693Z,10.43
2019-04-04T04:26:44.080Z,10.46
2019-04-04T04:29:18.315Z,10.43
2019-04-04T04:31:52.702Z,10.43
2019-04-04T04:34:27.074Z,10.43
2019-04-04T04:37:01.320Z,10.38
2019-04-04T04:39:40.769Z,10.38
2019-04-04T04:42:11.962Z,10.34
2019-04-04T04:44:46.299Z,10.31
2019-04-04T04:47:23.827Z,10.31
2019-04-04T04:49:56.938Z,10.32
2019-04-04T04:52:30.702Z,10.28
2019-04-04T04:55:04.918Z,10.29
2019-04-04T04:57:39.281Z,10.29
2019-04-04T05:00:13.976Z,10.30
2019-04-04T05:02:52.792Z,10.28
2019-04-04T05:05:25.916Z,10.34
2019-04-04T05:08:00.277Z,10.36
2019-04-04T05:10:34.677Z,10.40
2019-04-04T05:13:08.923Z,10.38
2019-04-04T05:15:41.989Z,10.37
2019-04-04T05:18:16.933Z,10.42
2019-04-04T05:20:51.564Z,10.31
2019-04-04T05:23:25.886Z,10.31
2019-04-04T05:26:02.257Z,10.35
2019-04-04T05:28:34.695Z,10.41
2019-04-04T05:31:09.227Z,10.49
2019-04-04T05:33:43.678Z,10.53
2019-04-04T05:36:18.066Z,10.59
2019-04-04T05:38:52.319Z,10.76
2019-04-04T05:41:27.362Z,10.76
2019-04-04T05:44:02.714Z,10.89
2019-04-04T05:46:36.944Z,10.89
2019-04-04T05:49:11.672Z,11.02
2019-04-04T05:51:48.191Z,11.19
2019-04-04T05:54:22.130Z,11.36
2019-04-04T05:56:56.676Z,11.72
2019-04-04T05:59:29.858Z,11.72
2019-04-04T06:02:03.945Z,11.94
2019-04-04T06:04:38.301Z,12.48
2019-04-04T06:07:16.187Z,12.48
2019-04-04T06:09:47.857Z,12.67
2019-04-04T06:12:24.719Z,12.92
2019-04-04T06:15:00.314Z,13.20
2019-04-04T06:17:34.341Z,13.52
2019-04-04T06:20:10.544Z,13.52
2019-04-04T06:22:44.936Z,13.92
2019-04-04T06:25:19.259Z,13.92
2019-04-04T06:27:53.924Z,14.07
2019-04-04T06:30:28.272Z,14.28
2019-04-04T06:33:04.731Z,14.39
2019-04-04T06:35:39.962Z,14.43
2019-04-04T06:38:14.668Z,15.09
2019-04-04T06:40:49.273Z,15.09
2019-04-04T06:43:23.671Z,15.31
2019-04-04T06:45:58.280Z,16.03
2019-04-04T06:48:33.754Z,16.03
2019-04-04T06:51:08.311Z,16.88
2019-04-04T06:53:42.664Z,16.88
2019-04-04T06:56:16.942Z,17.27
2019-04-04T06:58:51.116Z,17.79
2019-04-04T07:01:25.561Z,17.87
2019-04-04T07:04:02.769Z,17.87
2019-04-04T07:06:35.663Z,17.54
2019-04-04T07:09:10.291Z,17.54
2019-04-04T07:11:44.701Z,17.51
2019-04-04T07:14:19.931Z,17.44
2019-04-04T07:16:54.323Z,17.41
2019-04-04T07:19:28.871Z,17.42
2019-04-04T07:22:01.792Z,17.61
2019-04-04T07:24:36.087Z,17.76
2019-04-04T07:27:12.288Z,18.71
2019-04-04T07:29:46.754Z,18.71
2019-04-04T07:32:21.032Z,19.00
2019-04-04T07:34:55.666Z,18.44
2019-04-04T07:37:31.271Z,18.44
2019-04-04T07:40:05.935Z,18.40
2019-04-04T07:42:40.472Z,18.56
2019-04-04T07:45:16.787Z,19.19
2019-04-04T07:47:50.026Z,19.61
2019-04-04T07:50:26.254Z,19.99
2019-04-04T07:53:03.883Z,20.30
2019-04-04T07:55:37.750Z,19.94
2019-04-04T07:58:11.661Z,19.65
2019-04-04T08:00:46.270Z,19.84
2019-04-04T08:03:21.099Z,20.32
2019-04-04T08:05:55.650Z,21.74
2019-04-04T08:08:30.273Z,21.74
2019-04-04T08:11:04.871Z,22.73
2019-04-04T08:13:39.276Z,23.68
2019-04-04T08:16:13.924Z,24.62
2019-04-04T08:21:27.397Z,26.95
2019-04-04T08:24:02.093Z,28.06
2019-04-04T08:26:36.628Z,29.64
2019-04-04T08:29:11.329Z,29.64
2019-04-04T08:31:45.936Z,30.35
2019-04-04T08:34:20.543Z,30.55
2019-04-04T08:36:55.068Z,30.61
2019-04-04T08:39:29.287Z,31.47
2019-04-04T08:42:04.273Z,31.47
2019-04-04T08:44:38.686Z,31.96
2019-04-04T08:47:11.859Z,31.75
2019-04-04T08:49:46.136Z,32.21
2019-04-04T08:52:20.963Z,32.82
2019-04-04T08:54:55.635Z,32.82
2019-04-04T08:57:30.122Z,32.91
2019-04-04T09:00:04.879Z,32.91
2019-04-04T09:02:39.690Z,32.58
2019-04-04T09:05:12.998Z,32.58
2019-04-04T09:07:47.322Z,32.64
2019-04-04T09:10:22.276Z,32.55
2019-04-04T09:12:56.883Z,32.66
2019-04-04T09:15:31.277Z,32.82
2019-04-04T09:18:05.751Z,32.73
2019-04-04T09:20:39.274Z,32.59
2019-04-04T09:23:13.938Z,32.96
2019-04-04T09:25:49.325Z,33.17
2019-04-04T09:28:24.272Z,33.12
2019-04-04T09:30:58.696Z,33.05
2019-04-04T09:33:32.044Z,32.18
2019-04-04T09:36:06.304Z,31.97
2019-04-04T09:38:40.877Z,32.26
2019-04-04T09:41:15.298Z,32.37
2019-04-04T09:43:50.251Z,32.42
2019-04-04T09:46:25.124Z,32.35
2019-04-04T09:48:59.797Z,32.34
2019-04-04T09:51:33.103Z,32.34
2019-04-04T09:54:07.715Z,32.17
2019-04-04T09:56:42.286Z,31.67
2019-04-04T09:59:16.868Z,31.72
2019-04-04T10:01:51.267Z,31.76
2019-04-04T10:04:25.703Z,31.38
2019-04-04T10:07:00.334Z,31.58
2019-04-04T10:09:35.114Z,31.90
2019-04-04T10:12:09.891Z,31.96
2019-04-04T10:14:44.330Z,31.45
2019-04-04T10:17:18.747Z,31.97
2019-04-04T10:19:51.927Z,31.97
2019-04-04T10:22:25.862Z,31.67
2019-04-04T10:25:00.284Z,30.95
2019-04-04T10:27:34.785Z,31.20
2019-04-04T10:30:08.066Z,31.56
2019-04-04T10:32:42.335Z,31.66
2019-04-04T10:35:16.781Z,31.78
2019-04-04T10:37:49.656Z,31.65
2019-04-04T10:40:23.891Z,31.55
2019-04-04T10:42:58.506Z,31.81
2019-04-04T10:45:32.917Z,31.81
2019-04-04T10:48:07.675Z,31.88
2019-04-04T10:50:42.323Z,31.98
2019-04-04T10:53:17.106Z,32.20
2019-04-04T10:55:51.660Z,32.59
2019-04-04T10:58:25.944Z,32.80
2019-04-04T11:01:00.272Z,32.94
2019-04-04T11:03:34.716Z,33.14
2019-04-04T11:06:07.643Z,33.16
2019-04-04T11:08:41.918Z,33.04
2019-04-04T11:11:16.511Z,33.20
2019-04-04T11:13:50.921Z,33.25
2019-04-04T11:16:30.358Z,33.48
2019-04-04T11:19:01.320Z,33.50
2019-04-04T11:21:35.707Z,33.50
2019-04-04T11:24:09.879Z,33.75
2019-04-04T11:26:44.285Z,34.19
2019-04-04T11:29:18.670Z,34.26
2019-04-04T11:31:53.314Z,34.44
2019-04-04T11:34:27.695Z,34.83
2019-04-04T11:37:01.276Z,35.04
2019-04-04T11:39:35.288Z,35.12
2019-04-04T11:42:09.680Z,35.12
2019-04-04T11:44:42.860Z,35.57
2019-04-04T11:47:16.014Z,35.62
2019-04-04T11:49:51.103Z,36.00
2019-04-04T11:52:25.327Z,36.35
2019-04-04T11:55:00.761Z,36.35
2019-04-04T11:57:35.074Z,37.00
2019-04-04T12:00:14.098Z,37.44
2019-04-04T12:02:48.657Z,37.36
2019-04-04T12:05:21.682Z,37.36
2019-04-04T12:07:55.881Z,37.19
2019-04-04T12:10:30.300Z,37.03
2019-04-04T12:13:04.708Z,37.06
2019-04-04T12:15:39.291Z,37.29
2019-04-04T12:18:13.934Z,37.86
2019-04-04T12:20:48.297Z,37.67
2019-04-04T12:23:22.698Z,37.88
2019-04-04T12:25:56.068Z,38.20
2019-04-04T12:28:30.305Z,38.04
2019-04-04T12:31:05.674Z,38.14
2019-04-04T12:33:38.989Z,38.28
2019-04-04T12:36:24.012Z,38.48
2019-04-04T12:38:49.630Z,39.27
2019-04-04T12:41:24.275Z,39.06
2019-04-04T12:44:00.103Z,39.06
2019-04-04T12:46:34.725Z,39.17
2019-04-04T12:49:09.304Z,39.15
2019-04-04T12:51:44.278Z,39.15
2019-04-04T12:54:18.715Z,39.18
2019-04-04T12:56:52.062Z,39.10
2019-04-04T13:01:56.644Z,38.45
2019-04-04T13:04:32.218Z,38.58
2019-04-04T13:07:07.067Z,37.60
2019-04-04T13:09:41.698Z,37.74
2019-04-04T13:12:15.098Z,37.74
2019-04-04T13:14:49.324Z,38.09
2019-04-04T13:17:23.794Z,37.35
2019-04-04T13:19:56.864Z,37.76
2019-04-04T13:22:31.159Z,37.96
2019-04-04T13:25:07.273Z,38.27
2019-04-04T13:27:42.127Z,38.27
2019-04-04T13:30:18.081Z,38.57
2019-04-04T13:32:52.677Z,37.67
2019-04-04T13:35:25.852Z,37.85
2019-04-04T13:37:58.635Z,38.23
2019-04-04T13:40:44.710Z,38.23
2019-04-04T13:43:11.322Z,37.63
2019-04-04T13:45:45.869Z,38.06
2019-04-04T13:48:20.673Z,37.85
2019-04-04T13:50:54.003Z,38.14
2019-04-04T13:53:28.365Z,38.39
2019-04-04T13:56:03.285Z,36.79
2019-04-04T13:58:39.226Z,36.70
2019-04-04T14:01:13.860Z,36.88
2019-04-04T14:03:48.626Z,36.88
2019-04-04T14:06:23.271Z,36.56
2019-04-04T14:08:57.865Z,36.17
2019-04-04T14:11:32.514Z,35.90
2019-04-04T14:14:07.557Z,34.68
2019-04-04T14:16:42.265Z,34.68
2019-04-04T14:19:16.878Z,34.80
2019-04-04T14:21:51.274Z,34.79
2019-04-04T14:24:26.270Z,34.74
2019-04-04T14:27:00.857Z,34.08
2019-04-04T14:29:33.879Z,33.20
2019-04-04T14:32:06.704Z,32.20
2019-04-04T14:34:41.255Z,32.48
2019-04-04T14:37:16.776Z,32.87
2019-04-04T14:39:50.192Z,32.87
2019-04-04T14:42:24.664Z,32.32
2019-04-04T14:44:59.901Z,32.03
2019-04-04T14:47:35.326Z,31.61
2019-04-04T14:50:10.271Z,31.63
2019-04-04T14:52:45.105Z,31.40
2019-04-04T14:55:19.668Z,30.77
2019-04-04T14:57:53.007Z,30.77
2019-04-04T15:00:27.498Z,30.54
2019-04-04T15:03:02.287Z,30.45
2019-04-04T15:05:36.872Z,29.80
2019-04-04T15:08:11.312Z,29.99
2019-04-04T15:10:45.935Z,29.99
2019-04-04T15:13:20.700Z,29.98
2019-04-04T15:16:17.513Z,29.78
2019-04-04T15:18:52.065Z,29.47
2019-04-04T15:21:26.664Z,29.14
2019-04-04T15:24:01.324Z,29.14
2019-04-04T15:26:36.215Z,28.57
2019-04-04T15:29:10.667Z,28.00
2019-04-04T15:31:44.935Z,28.00
2019-04-04T15:34:19.388Z,28.19
2019-04-04T15:36:53.864Z,29.49
2019-04-04T15:39:28.111Z,29.86
2019-04-04T15:42:02.562Z,29.49
2019-04-04T15:44:37.106Z,29.49
2019-04-04T15:47:11.641Z,29.72
2019-04-04T15:49:46.286Z,29.72
2019-04-04T15:52:20.757Z,29.61
2019-04-04T15:54:55.272Z,29.48
2019-04-04T15:57:29.907Z,29.40
2019-04-04T16:00:04.267Z,29.56
2019-04-04T16:02:38.942Z,29.58
2019-04-04T16:05:13.590Z,29.18
2019-04-04T16:07:48.941Z,28.44
2019-04-04T16:10:23.090Z,28.44
2019-04-04T16:12:57.693Z,27.77
2019-04-04T16:15:31.938Z,27.77
2019-04-04T16:20:19.286Z,26.25
2019-04-04T16:22:53.687Z,26.25
2019-04-04T16:25:27.914Z,25.79
2019-04-04T16:28:02.261Z,25.01
2019-04-04T16:30:36.645Z,25.01
2019-04-04T16:33:11.099Z,24.70
2019-04-04T16:35:45.659Z,24.19
2019-04-04T16:38:22.816Z,24.19
2019-04-04T16:41:00.215Z,23.94
2019-04-04T16:43:33.291Z,23.79
2019-04-04T16:46:07.730Z,23.54
2019-04-04T16:48:42.270Z,23.37
2019-04-04T16:51:16.674Z,23.26
2019-04-04T16:53:50.938Z,23.18
2019-04-04T16:56:25.240Z,23.11
2019-04-04T16:58:59.672Z,23.08
2019-04-04T17:01:34.081Z,22.98
2019-04-04T17:04:08.648Z,22.85
2019-04-04T17:06:42.939Z,22.61
2019-04-04T17:09:17.322Z,22.61
2019-04-04T17:11:51.667Z,22.48
2019-04-04T17:14:25.943Z,22.35
2019-04-04T17:16:58.700Z,22.21
2019-04-04T17:19:32.942Z,22.14
2019-04-04T17:22:07.328Z,22.05
2019-04-04T17:24:41.736Z,21.96
2019-04-04T17:27:14.853Z,21.88
2019-04-04T17:29:48.939Z,21.75
2019-04-04T17:32:23.663Z,21.70
2019-04-04T17:34:58.094Z,21.55
2019-04-04T17:37:32.562Z,21.38
2019-04-04T17:40:07.810Z,21.38
2019-04-04T17:42:43.002Z,21.13
2019-04-04T17:45:19.674Z,20.85
2019-04-04T17:47:54.591Z,20.83
2019-04-04T17:50:30.108Z,20.83
2019-04-04T17:53:05.421Z,20.82
2019-04-04T17:55:40.167Z,20.74
2019-04-04T17:58:14.740Z,20.65
2019-04-04T18:01:56.794Z,20.53
2019-04-04T18:04:31.650Z,20.40
2019-04-04T18:07:06.353Z,20.34
2019-04-04T18:09:40.945Z,20.22
2019-04-04T18:12:16.926Z,20.11
2019-04-04T18:14:51.754Z,20.00
2019-04-04T18:17:25.710Z,19.88
2019-04-04T18:20:00.272Z,19.88
2019-04-04T18:22:34.757Z,19.79
2019-04-04T18:25:09.781Z,19.66
2019-04-04T18:27:44.282Z,19.61
2019-04-04T18:30:19.273Z,19.45
2019-04-04T18:32:53.680Z,19.45
2019-04-04T18:35:28.812Z,19.38
2019-04-04T18:38:03.643Z,19.35
2019-04-04T18:40:39.095Z,19.35
2019-04-04T18:43:13.688Z,19.32
2019-04-04T18:45:48.258Z,19.32
2019-04-04T18:48:22.912Z,19.29
2019-04-04T18:50:57.277Z,19.20
2019-04-04T18:53:31.688Z,19.17
2019-04-04T18:56:06.273Z,19.14
2019-04-04T18:58:40.708Z,19.07
2019-04-04T19:01:14.031Z,19.08
2019-04-04T19:03:46.866Z,19.03
2019-04-04T19:06:21.116Z,18.94
2019-04-04T19:08:55.642Z,18.89
2019-04-04T19:11:30.104Z,18.89
2019-04-04T19:14:04.648Z,18.84
2019-04-04T19:16:41.535Z,18.84
2019-04-04T19:19:20.948Z,18.76
2019-04-04T19:21:55.390Z,18.76
2019-04-04T19:24:30.137Z,18.63
2019-04-04T19:27:05.248Z,18.63
2019-04-04T19:29:39.739Z,18.59
2019-04-04T19:32:14.118Z,18.61
2019-04-04T19:34:48.655Z,18.61
2019-04-04T19:37:23.123Z,18.61
2019-04-04T19:39:57.673Z,18.43
2019-04-04T19:45:10.329Z,18.50
2019-04-04T19:47:45.261Z,18.46
2019-04-04T19:50:19.950Z,18.46
2019-04-04T19:52:53.010Z,18.48
2019-04-04T19:55:26.113Z,18.36
2019-04-04T19:58:00.778Z,18.31
2019-04-04T20:00:36.427Z,18.21
2019-04-04T20:03:11.283Z,18.12
2019-04-04T20:05:45.908Z,18.08
2019-04-04T20:08:19.303Z,18.13
2019-04-04T20:10:53.790Z,18.22
2019-04-04T20:13:31.259Z,18.22
2019-04-04T20:16:05.112Z,18.17
2019-04-04T20:18:39.780Z,17.91
2019-04-04T20:21:14.281Z,17.91
2019-04-04T20:23:48.890Z,18.11
2019-04-04T20:26:23.944Z,18.13
2019-04-04T20:28:58.340Z,18.13
2019-04-04T20:31:32.958Z,18.15
2019-04-04T20:34:06.454Z,18.10
2019-04-04T20:36:40.948Z,18.14
2019-04-04T20:39:15.331Z,18.03
2019-04-04T20:41:49.954Z,18.03
2019-04-04T20:44:24.663Z,17.83
2019-04-04T20:47:00.271Z,17.60
2019-04-04T20:49:36.002Z,17.51
2019-04-04T20:52:10.706Z,17.40
2019-04-04T20:54:45.277Z,17.40
2019-04-04T20:57:20.358Z,17.36
2019-04-04T20:59:54.979Z,16.87
2019-04-04T21:02:29.647Z,15.71
2019-04-04T21:05:04.283Z,15.71
2019-04-04T21:07:38.923Z,15.48
2019-04-04T21:10:13.674Z,14.80
2019-04-04T21:12:48.283Z,14.55
2019-04-04T21:15:22.944Z,14.43
2019-04-04T21:17:57.336Z,14.15
2019-04-04T21:20:34.972Z,14.15
2019-04-04T21:23:09.331Z,14.04
2019-04-04T21:25:43.762Z,13.81
2019-04-04T21:28:16.812Z,13.60
2019-04-04T21:30:51.089Z,13.60
2019-04-04T21:33:25.689Z,13.13
2019-04-04T21:36:00.318Z,13.13
2019-04-04T21:38:34.950Z,12.97
2019-04-04T21:41:09.288Z,13.15
2019-04-04T21:43:43.685Z,13.19
2019-04-04T21:46:18.133Z,13.09
2019-04-04T21:48:52.666Z,12.85
2019-04-04T21:51:27.124Z,12.70
2019-04-04T21:54:01.740Z,12.50
2019-04-04T21:56:34.815Z,12.50
2019-04-04T21:59:08.955Z,12.19
2019-04-04T22:01:42.296Z,12.24
2019-04-04T22:04:16.740Z,12.45
2019-04-04T22:06:51.290Z,12.51
2019-04-04T22:09:25.969Z,12.51
2019-04-04T22:11:59.269Z,12.54
2019-04-04T22:14:33.692Z,12.68
2019-04-04T22:17:08.366Z,12.68
2019-04-04T22:19:42.880Z,12.47
2019-04-04T22:22:17.291Z,12.40
2019-04-04T22:24:51.913Z,12.51
2019-04-04T22:27:26.294Z,12.20
2019-04-04T22:30:00.971Z,12.20
2019-04-04T22:32:35.709Z,12.22
2019-04-04T22:35:11.342Z,12.19
2019-04-04T22:37:46.698Z,12.49
2019-04-04T22:40:21.358Z,12.49
2019-04-04T22:42:56.304Z,12.64
2019-04-04T22:45:34.645Z,12.93
2019-04-04T22:48:09.970Z,13.05
2019-04-04T22:50:45.570Z,13.37
2019-04-04T22:53:20.298Z,13.37
2019-04-04T22:55:55.502Z,13.35
2019-04-04T22:58:30.414Z,13.31
2019-04-04T23:01:06.387Z,13.19
2019-04-04T23:03:40.949Z,12.98
2019-04-04T23:06:15.755Z,13.16
2019-04-04T23:08:50.391Z,13.30
2019-04-04T23:11:24.895Z,13.33
2019-04-04T23:13:57.876Z,13.13
2019-04-04T23:16:32.117Z,13.13
2019-04-04T23:19:06.785Z,13.02
2019-04-04T23:21:40.965Z,12.93
2019-04-04T23:25:27.803Z,12.98
2019-04-04T23:28:00.864Z,12.98
2019-04-04T23:30:35.049Z,13.00
2019-04-04T23:33:09.346Z,13.04
2019-04-04T23:35:43.898Z,13.04
2019-04-04T23:38:16.728Z,12.98
2019-04-04T23:40:50.968Z,12.97
2019-04-04T23:43:25.348Z,13.03
2019-04-04T23:45:59.786Z,13.03
2019-04-04T23:48:33.959Z,12.90
2019-04-04T23:51:08.596Z,12.91
2019-04-04T23:53:42.971Z,12.82
2019-04-04T23:56:17.262Z,12.80
2019-04-04T23:58:51.696Z,12.80
